Time;durP1;ratioP1;P1;durP2;ratioP2;P2;SDS_P1;SDS_P2;PMS_P1;PMS_P2;Temp;Humidity;BMP_temperature;BMP_pressure;BME280_temperature;BME280_humidity;BME280_pressure;Samples;Min_cycle;Max_cycle;Signal;HPM_P1;HPM_P2
2022/08/20 00:01:16;;;;;;;1.98;1.60;;;;;;;27.83;45.40;99680.81;4126382;28;20242;-64
2022/08/20 00:03:26;;;;;;;1.95;1.65;;;;;;;28.42;43.86;99679.28;4129502;28;20238;-64
2022/08/20 00:05:35;;;;;;;1.67;1.38;;;;;;;28.34;44.06;99680.69;4128362;28;20669;-64
2022/08/20 00:07:37;;;;;;;1.67;1.58;;;;;;;27.20;45.79;99700.19;4129620;28;20287;-64
2022/08/20 00:09:40;;;;;;;2.45;1.48;;;;;;;27.69;45.16;99693.41;4126443;28;20281;-65
2022/08/20 00:11:42;;;;;;;1.65;1.55;;;;;;;27.32;46.02;99689.84;4127086;28;20258;-64
2022/08/20 00:13:48;;;;;;;4.35;1.52;;;;;;;27.68;45.53;99684.38;4128145;28;20234;-64
2022/08/20 00:15:50;;;;;;;2.00;1.35;;;;;;;27.05;46.96;99669.03;4132298;28;20283;-64
2022/08/20 00:17:53;;;;;;;1.83;1.65;;;;;;;27.96;45.31;99665.75;4127819;28;20284;-64
2022/08/20 00:19:54;;;;;;;1.75;1.65;;;;;;;26.30;48.50;99673.97;4132190;28;20842;-64
2022/08/20 00:21:56;;;;;;;4.07;1.38;;;;;;;25.63;49.80;99661.84;4127764;28;20230;-64
2022/08/20 00:23:59;;;;;;;3.13;1.63;;;;;;;27.39;46.62;99654.06;4132958;28;20233;-64
2022/08/20 00:26:00;;;;;;;3.03;1.50;;;;;;;28.04;45.22;99665.19;4137244;28;20284;-64
2022/08/20 00:28:02;;;;;;;1.60;1.50;;;;;;;27.49;45.79;99673.16;4126336;28;20229;-64
2022/08/20 00:30:08;;;;;;;2.70;1.60;;;;;;;27.28;46.04;99685.19;4130833;28;21245;-64
2022/08/20 00:32:10;;;;;;;1.70;1.60;;;;;;;27.76;45.52;99683.81;4136309;28;20695;-64
2022/08/20 00:34:12;;;;;;;2.35;1.90;;;;;;;27.88;45.08;99680.78;4126505;28;20249;-64
2022/08/20 00:36:16;;;;;;;2.42;1.77;;;;;;;27.89;45.42;99692.56;4132780;28;20234;-66
2022/08/20 00:38:18;;;;;;;1.42;1.33;;;;;;;27.99;45.35;99698.81;4131245;28;20726;-64
2022/08/20 00:40:24;;;;;;;4.72;1.60;;;;;;;28.02;45.36;99696.63;4134207;28;20280;-64
2022/08/20 00:42:25;;;;;;;2.03;1.80;;;;;;;28.26;44.46;99696.84;4134453;28;20367;-65
2022/08/20 00:44:28;;;;;;;3.13;2.05;;;;;;;27.74;45.78;99702.41;4127344;28;20292;-64
2022/08/20 00:46:30;;;;;;;2.63;1.70;;;;;;;28.07;44.54;99693.88;4124279;28;20673;-64
2022/08/20 00:48:35;;;;;;;2.97;1.90;;;;;;;28.20;44.64;99703.44;4132658;28;20253;-64
2022/08/20 00:50:37;;;;;;;3.17;2.00;;;;;;;28.10;44.67;99706.97;4131160;28;20262;-63
2022/08/20 00:52:41;;;;;;;1.60;1.50;;;;;;;28.24;45.01;99704.50;4133215;28;20270;-64
2022/08/20 00:54:54;;;;;;;2.00;1.80;;;;;;;27.88;45.65;99708.13;4128287;28;20233;-64
2022/08/20 00:57:04;;;;;;;4.05;2.17;;;;;;;28.62;44.38;99704.91;4129343;28;20856;-65
2022/08/20 00:59:10;;;;;;;2.30;2.10;;;;;;;28.25;44.83;99712.44;4126344;28;20234;-64
2022/08/20 01:01:14;;;;;;;2.20;2.03;;;;;;;28.61;44.40;99715.03;4125498;28;20228;-64
2022/08/20 01:03:19;;;;;;;2.58;2.33;;;;;;;27.43;46.72;99715.22;4133596;28;20229;-64
2022/08/20 01:05:22;;;;;;;2.13;1.80;;;;;;;27.94;45.44;99715.22;4129340;28;20254;-64
2022/08/20 01:07:33;;;;;;;2.08;1.88;;;;;;;27.14;46.82;99693.91;4125432;28;20234;-64
2022/08/20 01:09:37;;;;;;;2.88;2.10;;;;;;;27.59;46.19;99705.94;4135936;28;20304;-64
2022/08/20 01:11:59;;;;;;;2.30;2.00;;;;;;;27.53;45.97;99717.13;4129189;28;20233;-65
2022/08/20 01:16:37;;;;;;;2.45;1.75;;;;;;;27.41;46.28;99703.75;4123797;28;20237;-64
2022/08/20 01:18:41;;;;;;;2.65;1.80;;;;;;;28.22;45.08;99709.44;4136715;28;20233;-65
2022/08/20 01:20:48;;;;;;;2.08;1.90;;;;;;;27.31;46.50;99712.75;4129979;28;20235;-65
2022/08/20 01:25:36;;;;;;;3.13;2.03;;;;;;;27.73;46.09;99698.03;4132280;28;20247;-65
2022/08/20 01:27:38;;;;;;;2.10;1.90;;;;;;;27.48;46.00;99728.06;4126278;28;20665;-64
2022/08/20 01:29:44;;;;;;;3.15;2.20;;;;;;;26.93;47.48;99700.41;4128656;28;20235;-65
2022/08/20 01:31:45;;;;;;;3.10;2.30;;;;;;;27.86;45.64;99699.38;4132935;28;20683;-64
2022/08/20 01:33:48;;;;;;;2.03;1.92;;;;;;;27.24;46.66;99714.94;4129894;28;20234;-65
2022/08/20 01:35:51;;;;;;;2.15;1.95;;;;;;;27.11;47.00;99721.72;4134559;28;20225;-65
2022/08/20 01:37:53;;;;;;;1.98;1.80;;;;;;;27.40;46.28;99726.69;4130354;28;20279;-64
2022/08/20 01:39:55;;;;;;;2.33;2.08;;;;;;;28.14;44.88;99724.44;4128751;28;20240;-65
2022/08/20 01:42:06;;;;;;;2.85;2.10;;;;;;;27.99;45.65;99715.22;4127730;28;20233;-65
2022/08/20 01:44:10;;;;;;;4.05;1.88;;;;;;;28.06;45.29;99722.31;4116411;28;20236;-64
2022/08/20 01:46:19;;;;;;;2.15;1.95;;;;;;;27.32;46.98;99730.78;4129895;28;20752;-65
2022/08/20 01:48:21;;;;;;;2.03;1.92;;;;;;;28.10;45.51;99723.38;4131533;28;20287;-64
2022/08/20 01:50:28;;;;;;;2.60;2.17;;;;;;;28.09;45.05;99727.19;4132327;28;20268;-64
2022/08/20 01:52:38;;;;;;;2.25;2.05;;;;;;;28.31;44.77;99722.25;4127014;28;20316;-66
2022/08/20 01:54:40;;;;;;;2.58;1.65;;;;;;;27.72;45.67;99742.84;4128489;28;20304;-65
2022/08/20 01:57:02;;;;;;;2.10;1.90;;;;;;;28.08;45.98;99729.13;4123788;28;20891;-65
2022/08/20 01:59:05;;;;;;;2.67;2.00;;;;;;;27.96;45.91;99745.00;4130696;28;20234;-65
2022/08/20 02:01:28;;;;;;;4.20;2.08;;;;;;;28.13;45.32;99748.25;4130985;28;20229;-65
2022/08/20 02:03:29;;;;;;;2.45;2.13;;;;;;;27.95;45.02;99757.81;4130681;28;20328;-65
2022/08/20 02:05:37;;;;;;;2.35;2.00;;;;;;;28.17;45.38;99751.28;4129802;28;20265;-64
2022/08/20 02:07:39;;;;;;;3.83;2.30;;;;;;;27.87;45.73;99761.13;4125169;28;20292;-65
2022/08/20 02:09:42;;;;;;;3.40;2.25;;;;;;;28.08;45.26;99766.56;4130244;28;21074;-64
2022/08/20 02:11:45;;;;;;;3.13;2.08;;;;;;;28.28;44.92;99754.81;4132017;28;20795;-64
2022/08/20 02:13:48;;;;;;;2.60;2.40;;;;;;;27.77;45.80;99758.38;4125812;28;20318;-64
2022/08/20 02:15:50;;;;;;;2.30;2.10;;;;;;;27.67;45.80;99761.13;4129962;28;20710;-65
2022/08/20 02:17:51;;;;;;;3.83;2.28;;;;;;;28.00;45.66;99759.75;4129962;28;20288;-64
2022/08/20 02:19:59;;;;;;;3.42;2.20;;;;;;;27.82;45.91;99750.22;4129881;28;20749;-64
2022/08/20 02:22:05;;;;;;;2.72;2.38;;;;;;;27.88;45.69;99754.56;4127823;28;20282;-65
2022/08/20 02:24:08;;;;;;;3.45;2.40;;;;;;;28.14;45.13;99757.25;4128648;28;20296;-65
2022/08/20 02:26:10;;;;;;;2.38;2.17;;;;;;;27.16;47.18;99759.13;4126427;28;20221;-65
2022/08/20 02:28:15;;;;;;;2.65;2.38;;;;;;;27.00;47.78;99745.44;4127459;28;20230;-65
2022/08/20 02:30:21;;;;;;;2.70;2.33;;;;;;;28.02;45.71;99740.34;4123129;28;20241;-65
2022/08/20 02:32:28;;;;;;;2.72;2.40;;;;;;;27.48;46.73;99756.16;4113103;28;20262;-65
2022/08/20 02:34:35;;;;;;;2.45;2.25;;;;;;;27.90;45.71;99760.56;4123051;28;20379;-64
2022/08/20 02:36:37;;;;;;;4.43;2.47;;;;;;;27.74;46.22;99753.50;4131157;28;20770;-64
2022/08/20 02:38:40;;;;;;;2.83;2.40;;;;;;;27.39;46.51;99757.81;4126958;28;20332;-65
2022/08/20 02:40:43;;;;;;;3.65;2.60;;;;;;;27.74;46.08;99750.78;4128683;28;20226;-64
2022/08/20 02:42:44;;;;;;;3.97;2.92;;;;;;;28.03;45.86;99742.00;4122445;28;20614;-65
2022/08/20 02:44:46;;;;;;;6.47;2.90;;;;;;;27.61;46.08;99750.19;4110963;28;20317;-64
2022/08/20 02:46:48;;;;;;;3.53;2.58;;;;;;;27.58;46.57;99748.00;4108955;28;20238;-65
2022/08/20 02:48:50;;;;;;;4.40;2.92;;;;;;;27.85;45.82;99744.19;4117124;28;20238;-65
2022/08/20 02:50:56;;;;;;;2.90;2.60;;;;;;;26.92;47.94;99756.84;4129676;28;20268;-64
2022/08/20 02:52:58;;;;;;;2.60;2.40;;;;;;;27.89;46.15;99739.81;4127710;28;20619;-65
2022/08/20 02:54:59;;;;;;;2.95;2.60;;;;;;;26.84;47.73;99732.81;4120733;28;20245;-65
2022/08/20 02:57:03;;;;;;;2.85;2.55;;;;;;;27.17;47.57;99726.13;4126549;28;20230;-65
2022/08/20 02:59:04;;;;;;;3.20;2.60;;;;;;;27.74;45.82;99739.84;4126579;28;20261;-64
2022/08/20 03:01:11;;;;;;;3.95;3.03;;;;;;;26.26;49.19;99744.53;4123629;28;20246;-65
2022/08/20 03:03:14;;;;;;;3.58;2.67;;;;;;;26.43;48.31;99747.09;4130719;28;20245;-64
2022/08/20 03:05:15;;;;;;;3.95;2.65;;;;;;;26.94;47.43;99734.75;4128761;28;21164;-65
2022/08/20 03:07:17;;;;;;;2.88;2.58;;;;;;;27.40;46.93;99722.06;4126105;28;20250;-64
2022/08/20 03:09:19;;;;;;;4.07;2.75;;;;;;;26.98;47.63;99722.25;4128945;28;20242;-64
2022/08/20 03:11:21;;;;;;;3.25;2.85;;;;;;;26.46;48.94;99726.66;4128237;28;20718;-65
2022/08/20 03:13:23;;;;;;;4.65;3.05;;;;;;;27.24;47.07;99718.47;4128492;28;20954;-64
2022/08/20 03:15:24;;;;;;;3.03;2.70;;;;;;;27.65;46.63;99736.00;4130530;28;20594;-64
2022/08/20 03:17:26;;;;;;;2.80;2.45;;;;;;;27.22;47.20;99734.31;4127242;28;20241;-64
2022/08/20 03:19:28;;;;;;;3.10;2.80;;;;;;;27.01;47.24;99746.22;4125222;28;20324;-64
2022/08/20 03:21:30;;;;;;;3.97;3.08;;;;;;;27.00;48.03;99723.59;4124205;28;20786;-65
2022/08/20 03:23:33;;;;;;;3.10;2.80;;;;;;;27.27;47.06;99733.50;4127202;28;20241;-64
2022/08/20 03:25:36;;;;;;;3.90;2.63;;;;;;;27.21;47.13;99738.16;4124367;28;20303;-65
2022/08/20 03:27:37;;;;;;;3.30;3.00;;;;;;;27.52;46.95;99727.25;4122285;28;20722;-65
2022/08/20 03:29:39;;;;;;;5.20;3.13;;;;;;;27.58;46.65;99738.97;4124238;28;20722;-65
2022/08/20 03:31:41;;;;;;;3.05;2.83;;;;;;;27.72;46.21;99740.13;4128590;28;20780;-65
2022/08/20 03:33:43;;;;;;;3.58;2.88;;;;;;;27.28;47.31;99743.34;4122324;28;20658;-65
2022/08/20 03:35:54;;;;;;;3.25;2.95;;;;;;;27.37;46.95;99730.78;4128830;28;20245;-64
2022/08/20 03:37:56;;;;;;;4.95;3.08;;;;;;;27.38;47.07;99734.31;4126286;28;20327;-65
2022/08/20 03:39:58;;;;;;;3.58;2.90;;;;;;;27.41;46.88;99737.31;4129319;28;20247;-64
2022/08/20 03:42:00;;;;;;;4.25;3.33;;;;;;;27.47;47.25;99729.97;4125441;28;20315;-65
2022/08/20 03:44:02;;;;;;;2.92;2.72;;;;;;;26.51;48.67;99722.06;4122502;28;20287;-65
2022/08/20 03:46:04;;;;;;;3.67;3.22;;;;;;;27.49;46.48;99718.78;4127667;28;20229;-64
2022/08/20 03:48:22;;;;;;;3.40;2.95;;;;;;;27.40;46.86;99734.91;4129747;28;20761;-65
2022/08/20 03:50:27;;;;;;;3.28;2.90;;;;;;;27.24;47.08;99734.84;4129102;28;20223;-65
2022/08/20 03:52:29;;;;;;;4.65;3.20;;;;;;;27.36;46.66;99731.06;4130336;28;20281;-65
2022/08/20 03:54:30;;;;;;;4.47;3.05;;;;;;;26.60;48.27;99730.56;4130276;28;20296;-65
2022/08/20 03:56:32;;;;;;;3.95;2.90;;;;;;;27.26;47.25;99726.41;4130123;28;20312;-65
2022/08/20 03:58:34;;;;;;;5.90;4.20;;;;;;;27.45;46.74;99732.16;4132808;28;21041;-64
2022/08/20 04:00:43;;;;;;;4.47;3.30;;;;;;;27.28;47.48;99731.59;4130984;28;20317;-65
2022/08/20 04:02:45;;;;;;;4.18;3.00;;;;;;;26.30;49.60;99736.66;4127483;28;20272;-65
2022/08/20 04:04:47;;;;;;;4.32;3.42;;;;;;;25.71;50.35;99743.88;4127416;28;20291;-64
2022/08/20 04:06:49;;;;;;;5.78;3.25;;;;;;;25.50;51.21;99715.66;4129291;28;20281;-65
2022/08/20 04:08:52;;;;;;;4.93;3.35;;;;;;;25.54;50.90;99714.06;4133260;28;20221;-65
2022/08/20 04:10:58;;;;;;;4.72;3.38;;;;;;;26.80;48.45;99727.09;4129085;28;20234;-65
2022/08/20 04:13:00;;;;;;;3.75;3.00;;;;;;;27.63;46.55;99719.88;4132355;28;20222;-65
2022/08/20 04:15:02;;;;;;;6.10;3.22;;;;;;;27.16;47.56;99745.50;4129587;28;20256;-65
2022/08/20 04:17:09;;;;;;;6.20;3.50;;;;;;;26.44;48.81;99742.47;4133633;28;20229;-65
2022/08/20 04:19:11;;;;;;;6.28;3.88;;;;;;;26.40;49.23;99738.63;4131034;28;20809;-65
2022/08/20 04:21:12;;;;;;;4.97;3.30;;;;;;;25.92;49.78;99738.59;4127964;28;20715;-65
2022/08/20 04:23:14;;;;;;;5.07;3.40;;;;;;;25.43;51.33;99717.78;4128285;28;20311;-65
2022/08/20 04:25:16;;;;;;;4.95;3.55;;;;;;;26.58;48.53;99723.75;4132658;28;20241;-65
2022/08/20 04:27:20;;;;;;;4.68;3.22;;;;;;;26.80;48.41;99737.19;4129845;28;20247;-64
2022/08/20 04:29:23;;;;;;;4.55;3.60;;;;;;;26.82;48.59;99730.34;4130833;28;20233;-65
2022/08/20 04:31:31;;;;;;;4.72;3.20;;;;;;;26.98;48.18;99739.41;4129619;28;20577;-65
2022/08/20 04:33:33;;;;;;;4.25;3.40;;;;;;;27.43;47.11;99739.78;4128134;28;20736;-65
2022/08/20 04:35:36;;;;;;;4.32;3.10;;;;;;;26.70;48.57;99754.31;4134491;28;20621;-64
2022/08/20 04:37:40;;;;;;;5.18;3.17;;;;;;;27.53;46.97;99745.25;4128240;28;20839;-64
2022/08/20 04:39:42;;;;;;;4.47;3.63;;;;;;;27.20;47.41;99747.41;4138116;28;20238;-65
2022/08/20 04:41:44;;;;;;;6.72;3.35;;;;;;;26.88;48.04;99740.22;4128219;28;20993;-65
2022/08/20 04:43:45;;;;;;;4.40;3.58;;;;;;;27.22;47.31;99747.16;4125364;28;20238;-65
2022/08/20 04:45:48;;;;;;;4.03;3.40;;;;;;;27.40;47.02;99754.81;4130524;28;20283;-64
2022/08/20 04:47:50;;;;;;;4.53;3.50;;;;;;;26.81;48.13;99760.66;4133600;28;20237;-65
2022/08/20 04:49:51;;;;;;;7.63;3.38;;;;;;;27.20;47.15;99752.88;4128302;28;21047;-64
2022/08/20 04:51:58;;;;;;;7.55;3.53;;;;;;;26.92;48.03;99759.59;4130421;28;20230;-64
2022/08/20 04:54:01;;;;;;;3.95;3.55;;;;;;;26.47;48.79;99767.28;4133149;28;20229;-65
2022/08/20 04:56:03;;;;;;;3.55;3.25;;;;;;;26.47;49.02;99752.81;4127484;28;20226;-64
2022/08/20 04:58:08;;;;;;;5.03;3.92;;;;;;;26.38;49.24;99760.69;4127579;28;20237;-64
2022/08/20 05:00:15;;;;;;;4.80;3.35;;;;;;;26.99;48.16;99753.88;4118120;28;20281;-64
2022/08/20 05:02:18;;;;;;;4.40;3.70;;;;;;;26.52;48.71;99761.91;4127266;28;20234;-63
2022/08/20 05:04:19;;;;;;;4.82;3.40;;;;;;;27.38;47.48;99753.44;4124135;28;20261;-64
2022/08/20 05:06:25;;;;;;;4.05;3.60;;;;;;;27.20;47.67;99763.78;4128762;28;20258;-64
2022/08/20 05:08:28;;;;;;;4.53;3.30;;;;;;;26.39;49.13;99772.44;4131897;28;21621;-64
2022/08/20 05:10:29;;;;;;;4.32;3.40;;;;;;;26.36;49.39;99768.31;4129293;28;20241;-64
2022/08/20 05:12:31;;;;;;;5.55;3.58;;;;;;;26.05;50.21;99770.00;4133784;28;20233;-64
2022/08/20 05:14:33;;;;;;;5.32;3.55;;;;;;;26.09;49.96;99761.06;4124623;28;20325;-64
2022/08/20 05:16:39;;;;;;;5.68;3.38;;;;;;;26.68;48.67;99761.97;4129336;28;20759;-65
2022/08/20 05:18:43;;;;;;;4.90;3.22;;;;;;;27.05;48.19;99755.53;4131601;28;20244;-64
2022/08/20 05:20:53;;;;;;;4.40;3.55;;;;;;;27.11;47.86;99761.84;4128594;28;20222;-64
2022/08/20 05:22:54;;;;;;;5.78;3.50;;;;;;;26.96;48.50;99760.72;4134088;28;20234;-63
2022/08/20 05:24:58;;;;;;;4.25;3.63;;;;;;;27.08;48.13;99771.41;4129079;28;20295;-63
2022/08/20 05:27:00;;;;;;;5.10;3.35;;;;;;;26.37;49.54;99778.16;4129155;28;20221;-64
2022/08/20 05:29:03;;;;;;;4.45;3.20;;;;;;;26.71;49.33;99773.16;4128981;28;20714;-64
2022/08/20 05:31:08;;;;;;;4.65;3.53;;;;;;;27.17;48.20;99775.25;4128288;28;20790;-65
2022/08/20 05:33:13;;;;;;;5.32;3.42;;;;;;;27.11;48.21;99778.22;4128453;28;20297;-64
2022/08/20 05:35:14;;;;;;;6.03;3.40;;;;;;;26.46;49.32;99781.19;4127663;28;20244;-63
2022/08/20 05:37:16;;;;;;;5.32;3.40;;;;;;;26.33;49.36;99783.28;4125318;28;20304;-65
2022/08/20 05:39:20;;;;;;;5.45;3.35;;;;;;;27.25;48.12;99765.72;4134640;28;20233;-64
2022/08/20 05:41:22;;;;;;;5.82;3.10;;;;;;;26.82;48.77;99784.91;4128882;28;20241;-63
2022/08/20 05:43:32;;;;;;;5.35;3.65;;;;;;;26.74;49.09;99793.63;4131747;28;20244;-63
2022/08/20 05:45:36;;;;;;;5.55;3.58;;;;;;;27.29;47.88;99779.63;4125687;28;20238;-64
2022/08/20 05:47:39;;;;;;;3.80;3.40;;;;;;;27.02;48.52;99797.00;4125848;28;20292;-64
2022/08/20 05:49:45;;;;;;;5.20;3.53;;;;;;;27.22;48.47;99788.09;4136508;28;20662;-65
2022/08/20 05:51:48;;;;;;;5.50;3.63;;;;;;;27.57;47.29;99795.50;4127954;28;20276;-65
2022/08/20 05:53:50;;;;;;;3.53;3.22;;;;;;;26.83;49.24;99802.94;4127046;28;20241;-64
2022/08/20 05:55:52;;;;;;;4.82;3.40;;;;;;;26.55;48.96;99812.34;4127231;28;20234;-64
2022/08/20 05:58:01;;;;;;;3.50;3.20;;;;;;;27.51;47.79;99806.69;4127587;28;20230;-65
2022/08/20 06:00:06;;;;;;;3.78;3.05;;;;;;;26.93;48.93;99806.81;4129431;28;20225;-65
2022/08/20 06:04:23;;;;;;;4.47;3.45;;;;;;;26.92;48.84;99803.22;4126789;28;20381;-64
2022/08/20 06:04:30;;;;;;;3.97;3.17;;;;;;;26.53;49.41;99809.88;4125282;28;20592;-65
2022/08/20 06:06:33;;;;;;;3.95;3.38;;;;;;;27.30;48.26;99801.22;4124327;28;20253;-65
2022/08/20 06:08:47;;;;;;;7.28;3.15;;;;;;;27.67;47.33;99793.91;4130228;28;20234;-65
2022/08/20 06:10:48;;;;;;;3.55;3.10;;;;;;;27.91;46.74;99803.19;4129678;28;20725;-65
2022/08/20 06:12:52;;;;;;;3.28;2.97;;;;;;;27.38;48.08;99814.34;4131051;28;20233;-65
2022/08/20 06:14:53;;;;;;;4.40;3.30;;;;;;;27.23;47.96;99823.31;4130036;28;20233;-62
2022/08/20 06:17:03;;;;;;;4.00;2.90;;;;;;;26.75;49.12;99819.81;4129693;28;20221;-65
2022/08/20 06:19:05;;;;;;;4.50;3.13;;;;;;;26.47;49.74;99812.78;4128573;28;20234;-64
2022/08/20 06:21:11;;;;;;;3.92;3.50;;;;;;;27.49;48.01;99804.25;4132899;28;20241;-64
2022/08/20 06:23:13;;;;;;;6.47;3.30;;;;;;;26.01;50.40;99817.94;4128557;28;20240;-65
2022/08/20 06:25:15;;;;;;;4.00;3.50;;;;;;;27.19;48.27;99797.63;4127552;28;20946;-65
2022/08/20 06:27:17;;;;;;;5.72;3.58;;;;;;;26.67;49.08;99815.69;4127448;28;20300;-65
2022/08/20 06:29:19;;;;;;;4.45;3.33;;;;;;;26.46;49.78;99805.72;4124415;28;20269;-65
2022/08/20 06:31:21;;;;;;;3.72;3.13;;;;;;;27.16;48.22;99790.00;4129793;28;20238;-65
2022/08/20 06:33:23;;;;;;;4.22;2.80;;;;;;;26.78;49.00;99800.19;4127699;28;20241;-65
2022/08/20 06:35:24;;;;;;;6.15;3.22;;;;;;;27.14;48.68;99799.53;4130844;28;20330;-65
2022/08/20 06:37:28;;;;;;;3.67;2.88;;;;;;;27.01;48.80;99809.84;4124569;28;20272;-64
2022/08/20 06:39:32;;;;;;;4.93;3.35;;;;;;;27.28;48.40;99800.66;4126141;28;20325;-65
2022/08/20 06:41:34;;;;;;;4.78;3.05;;;;;;;27.61;47.49;99804.81;4127318;28;20242;-64
2022/08/20 06:43:37;;;;;;;7.03;3.35;;;;;;;26.75;49.39;99827.97;4133973;28;20267;-64
2022/08/20 06:45:39;;;;;;;4.07;3.20;;;;;;;26.52;49.52;99821.03;4125793;28;20241;-65
2022/08/20 06:47:43;;;;;;;3.08;2.78;;;;;;;26.22;50.43;99822.47;4134662;28;20291;-65
2022/08/20 06:49:46;;;;;;;3.83;3.00;;;;;;;26.82;48.90;99819.56;4126322;28;20264;-65
2022/08/20 06:51:47;;;;;;;4.65;2.83;;;;;;;27.01;48.73;99807.09;4128692;28;20235;-65
2022/08/20 06:53:52;;;;;;;5.95;3.33;;;;;;;27.18;48.37;99808.81;4121817;28;20226;-64
2022/08/20 06:55:56;;;;;;;3.38;2.97;;;;;;;27.13;48.51;99815.09;4124135;28;20227;-65
2022/08/20 06:58:04;;;;;;;3.25;2.95;;;;;;;27.35;48.30;99814.06;4126447;28;20276;-65
2022/08/20 07:00:12;;;;;;;6.53;3.35;;;;;;;27.22;48.08;99823.56;4125833;28;20787;-64
2022/08/20 07:02:15;;;;;;;3.65;2.95;;;;;;;27.29;48.01;99818.66;4126882;28;20264;-64
2022/08/20 07:04:16;;;;;;;4.15;3.17;;;;;;;27.28;48.24;99829.84;4128633;28;20292;-65
2022/08/20 07:06:18;;;;;;;5.00;3.03;;;;;;;26.57;50.10;99831.16;4125736;28;20360;-65
2022/08/20 07:08:21;;;;;;;5.07;2.88;;;;;;;26.49;50.02;99824.28;4125246;28;20229;-64
2022/08/20 07:10:24;;;;;;;4.43;2.83;;;;;;;26.83;49.10;99819.31;4127354;28;20292;-64
2022/08/20 07:12:25;;;;;;;7.32;3.47;;;;;;;26.71;49.59;99819.53;4126842;28;20238;-65
2022/08/20 07:14:27;;;;;;;3.38;2.90;;;;;;;26.77;50.14;99817.63;4125364;28;20237;-65
2022/08/20 07:16:29;;;;;;;3.53;2.70;;;;;;;26.71;49.98;99826.88;4127932;28;20234;-64
2022/08/20 07:18:30;;;;;;;5.00;3.00;;;;;;;27.60;48.06;99821.44;4128068;28;20288;-64
2022/08/20 07:20:35;;;;;;;5.38;2.97;;;;;;;27.01;49.07;99837.13;4134956;28;20225;-64
2022/08/20 07:22:37;;;;;;;4.10;3.10;;;;;;;26.71;49.74;99841.34;4129780;28;20663;-64
2022/08/20 07:24:39;;;;;;;4.47;2.95;;;;;;;27.35;48.41;99833.97;4113206;28;20246;-65
2022/08/20 07:26:43;;;;;;;4.68;3.15;;;;;;;26.88;49.87;99843.06;4121969;28;20242;-65
2022/08/20 07:28:45;;;;;;;3.58;2.60;;;;;;;27.26;49.23;99838.31;4132339;28;20584;-64
2022/08/20 07:33:16;;;;;;;3.10;2.70;;;;;;;27.27;49.31;99845.41;4130612;28;20225;-65
2022/08/20 07:35:19;;;;;;;3.88;2.53;;;;;;;27.91;47.64;99835.19;4131171;28;20237;-65
2022/08/20 07:37:22;;;;;;;3.72;2.72;;;;;;;27.57;48.51;99852.06;4127734;28;20292;-65
2022/08/20 07:39:24;;;;;;;7.35;2.60;;;;;;;27.72;48.09;99864.91;4132245;28;20765;-64
2022/08/20 07:41:26;;;;;;;3.28;2.55;;;;;;;27.32;49.15;99855.53;4131659;28;20237;-64
2022/08/20 07:43:29;;;;;;;4.20;2.38;;;;;;;27.19;48.73;99856.84;4133369;28;20233;-65
2022/08/20 07:45:31;;;;;;;2.58;2.10;;;;;;;27.73;48.19;99859.19;4129065;28;20629;-64
2022/08/20 07:47:34;;;;;;;5.78;2.58;;;;;;;27.30;49.12;99861.28;4127184;28;20237;-65
2022/08/20 07:49:37;;;;;;;3.38;2.13;;;;;;;27.68;48.49;99864.66;4131412;28;20238;-65
2022/08/20 07:51:39;;;;;;;4.05;2.40;;;;;;;26.68;50.22;99866.41;4133006;28;20233;-65
2022/08/20 07:53:41;;;;;;;2.53;2.30;;;;;;;27.81;47.94;99849.66;4128024;28;20241;-65
2022/08/20 07:55:43;;;;;;;3.80;2.30;;;;;;;27.65;48.29;99856.19;4129618;28;20695;-65
2022/08/20 07:58:07;;;;;;;2.22;2.03;;;;;;;28.12;46.82;99863.31;4129719;28;20229;-65
2022/08/20 08:00:11;;;;;;;2.50;2.03;;;;;;;28.42;46.57;99861.69;4118706;28;20287;-65
2022/08/20 08:02:12;;;;;;;2.25;1.92;;;;;;;28.43;46.75;99860.56;4131642;28;20296;-64
2022/08/20 08:04:14;;;;;;;3.10;2.00;;;;;;;28.08;47.33;99862.25;4126992;28;20233;-64
2022/08/20 08:06:21;;;;;;;2.92;2.00;;;;;;;27.86;47.43;99874.25;4116656;28;20271;-65
2022/08/20 08:08:32;;;;;;;1.48;1.38;;;;;;;27.97;46.46;99861.41;4117681;28;20325;-65
2022/08/20 08:10:36;;;;;;;1.50;1.40;;;;;;;27.81;46.75;99866.84;4122824;28;20229;-65
2022/08/20 08:12:43;;;;;;;1.42;1.30;;;;;;;28.22;46.24;99865.25;4127945;28;21241;-65
2022/08/20 08:14:47;;;;;;;1.50;1.40;;;;;;;27.47;47.56;99879.34;4130590;28;20741;-65
2022/08/20 08:16:49;;;;;;;1.52;1.42;;;;;;;27.95;46.99;99861.66;4135238;28;20239;-65
2022/08/20 08:18:55;;;;;;;2.35;1.90;;;;;;;28.18;46.41;99860.34;4129321;28;20395;-65
2022/08/20 08:20:57;;;;;;;2.13;1.50;;;;;;;27.46;47.53;99870.31;4114822;28;20234;-64
2022/08/20 08:22:59;;;;;;;3.92;1.65;;;;;;;27.81;46.67;99855.94;4131184;28;20229;-64
2022/08/20 08:25:01;;;;;;;1.60;1.50;;;;;;;27.18;48.12;99872.41;4135660;28;20661;-64
2022/08/20 08:27:03;;;;;;;1.90;1.52;;;;;;;27.07;48.61;99859.81;4134728;28;20226;-64
2022/08/20 08:29:07;;;;;;;1.90;1.40;;;;;;;27.88;47.10;99846.66;4132932;28;20246;-63
2022/08/20 08:31:10;;;;;;;1.90;1.50;;;;;;;27.39;47.48;99862.38;4130213;28;20235;-64
2022/08/20 08:33:27;;;;;;;1.55;1.45;;;;;;;28.19;46.62;99842.00;4130758;28;20230;-64
2022/08/20 08:35:31;;;;;;;1.42;1.20;;;;;;;28.20;46.21;99854.59;4131114;28;20269;-64
2022/08/20 08:37:33;;;;;;;1.73;1.38;;;;;;;28.37;46.15;99855.13;4130894;28;20233;-64
2022/08/20 08:39:35;;;;;;;1.77;1.63;;;;;;;27.87;47.19;99858.66;4132605;28;20284;-64
2022/08/20 08:41:48;;;;;;;1.30;1.20;;;;;;;28.08;46.81;99854.84;4129317;28;20229;-64
2022/08/20 08:43:54;;;;;;;1.70;1.40;;;;;;;28.64;46.05;99850.44;4125858;28;20337;-63
2022/08/20 08:46:05;;;;;;;3.08;1.30;;;;;;;28.25;46.65;99851.84;4130116;28;20238;-63
2022/08/20 08:48:09;;;;;;;1.92;1.50;;;;;;;27.51;47.79;99866.78;4135293;28;20226;-63
2022/08/20 08:50:25;;;;;;;1.40;1.30;;;;;;;27.67;47.54;99854.84;4131757;28;20225;-64
2022/08/20 08:52:51;;;;;;;2.28;1.60;;;;;;;27.39;48.06;99859.63;4128468;28;20246;-64
2022/08/20 08:54:57;;;;;;;1.67;1.58;;;;;;;27.78;47.49;99855.66;4128218;28;20236;-64
2022/08/20 08:57:00;;;;;;;2.63;1.67;;;;;;;27.62;48.05;99852.91;4127781;28;20232;-64
2022/08/20 08:59:09;;;;;;;2.28;1.75;;;;;;;28.18;47.05;99862.25;4130828;28;20229;-64
2022/08/20 09:01:17;;;;;;;1.55;1.45;;;;;;;27.91;47.50;99865.25;4128183;28;20279;-64
2022/08/20 09:03:44;;;;;;;2.03;1.70;;;;;;;27.65;47.55;99861.63;4130016;28;20766;-65
2022/08/20 09:05:57;;;;;;;1.63;1.52;;;;;;;28.32;46.78;99843.38;4131098;28;20325;-64
2022/08/20 09:08:02;;;;;;;1.88;1.70;;;;;;;29.00;45.57;99861.28;4128790;28;20228;-65
2022/08/20 09:10:05;;;;;;;2.67;1.63;;;;;;;28.19;46.86;99872.09;4129341;28;20295;-64
2022/08/20 09:12:14;;;;;;;1.60;1.40;;;;;;;28.43;46.48;99864.16;4134111;28;20225;-64
2022/08/20 09:14:16;;;;;;;1.95;1.70;;;;;;;27.82;47.09;99870.44;4130097;28;20236;-64
2022/08/20 09:16:17;;;;;;;1.92;1.75;;;;;;;28.03;47.02;99863.03;4134638;28;20225;-64
2022/08/20 09:18:19;;;;;;;1.50;1.40;;;;;;;28.68;45.84;99852.38;4124363;28;20233;-64
2022/08/20 09:20:21;;;;;;;1.65;1.50;;;;;;;29.01;45.30;99851.97;4127032;28;20654;-65
2022/08/20 09:22:27;;;;;;;2.00;1.65;;;;;;;29.11;45.26;99860.13;4128805;28;20267;-64
2022/08/20 09:24:29;;;;;;;2.20;1.80;;;;;;;29.04;45.04;99865.09;4125662;28;20245;-65
2022/08/20 09:26:31;;;;;;;1.58;1.48;;;;;;;29.22;45.03;99866.41;4129265;28;20654;-64
2022/08/20 09:28:36;;;;;;;1.50;1.40;;;;;;;28.83;45.73;99854.25;4135711;28;20252;-64
2022/08/20 09:30:38;;;;;;;2.70;1.50;;;;;;;29.43;44.39;99861.66;4126205;28;20976;-65
2022/08/20 09:32:42;;;;;;;1.92;1.42;;;;;;;29.18;44.15;99862.56;4132166;28;20252;-64
2022/08/20 09:34:50;;;;;;;1.25;1.25;;;;;;;28.97;44.58;99859.94;4129310;28;20753;-64
2022/08/20 09:36:53;;;;;;;1.52;1.42;;;;;;;28.33;44.55;99872.38;4122871;28;20660;-65
2022/08/20 09:38:54;;;;;;;1.83;1.58;;;;;;;28.26;44.61;99855.41;4119081;28;20223;-63
2022/08/20 09:40:56;;;;;;;1.60;1.50;;;;;;;28.09;45.10;99851.03;4125747;28;20226;-64
2022/08/20 09:42:58;;;;;;;1.60;1.50;;;;;;;28.81;43.99;99850.13;4126820;28;20658;-65
2022/08/20 09:45:00;;;;;;;1.60;1.42;;;;;;;29.05;44.06;99855.78;4120746;28;20238;-64
2022/08/20 09:47:02;;;;;;;2.60;1.58;;;;;;;29.04;44.10;99849.50;4129656;28;20287;-64
2022/08/20 09:49:04;;;;;;;1.73;1.58;;;;;;;28.96;44.47;99844.59;4130370;28;20611;-64
2022/08/20 09:51:09;;;;;;;1.63;1.30;;;;;;;28.49;45.20;99835.69;4129153;28;20607;-65
2022/08/20 09:53:11;;;;;;;1.55;1.42;;;;;;;28.53;44.87;99841.44;4128390;28;20234;-64